Time;durP1;ratioP1;P1;durP2;ratioP2;P2;SDS_P1;SDS_P2;PMS_P1;PMS_P2;Temp;Humidity;BMP_temperature;BMP_pressure;BME280_temperature;BME280_humidity;BME280_pressure;Samples;Min_cycle;Max_cycle;Signal;HPM_P1;HPM_P2
2023/01/14 00:00:11;;;;;;;7.00;1.70;;;;;;;6.18;100.00;101195.50;1036149;28;20727;-78
2023/01/14 00:00:42;;;;;;;14.25;2.83;;;;;;;6.15;100.00;101190.59;1042676;28;20299;-78
2023/01/14 00:01:17;;;;;;;9.23;2.60;;;;;;;6.22;100.00;101193.31;1039481;28;20824;-77
2023/01/14 00:01:49;;;;;;;7.32;2.40;;;;;;;6.27;100.00;101190.97;1045015;28;20307;-78
2023/01/14 00:02:20;;;;;;;6.43;1.98;;;;;;;6.25;100.00;101191.16;1043604;28;20299;-78
2023/01/14 00:02:52;;;;;;;10.68;2.60;;;;;;;6.24;100.00;101192.16;1044482;28;20318;-78
2023/01/14 00:03:24;;;;;;;14.07;2.17;;;;;;;6.22;100.00;101188.84;1047168;28;20295;-78
2023/01/14 00:03:56;;;;;;;12.73;2.22;;;;;;;6.25;100.00;101191.16;1043098;28;20352;-78
2023/01/14 00:04:28;;;;;;;14.00;2.80;;;;;;;6.27;100.00;101191.78;1039922;28;20304;-78
2023/01/14 00:04:59;;;;;;;13.27;2.35;;;;;;;6.34;100.00;101187.44;1040355;28;20307;-78
2023/01/14 00:05:31;;;;;;;5.90;1.95;;;;;;;6.27;100.00;101191.78;1045085;28;20295;-78
2023/01/14 00:06:03;;;;;;;6.88;2.05;;;;;;;6.22;100.00;101190.69;1039063;28;20774;-78
2023/01/14 00:06:35;;;;;;;6.50;2.03;;;;;;;6.24;100.00;101192.16;1043435;28;20291;-78
2023/01/14 00:07:07;;;;;;;11.60;1.98;;;;;;;6.22;100.00;101186.22;1043089;28;20361;-79
2023/01/14 00:07:38;;;;;;;10.05;1.75;;;;;;;6.22;100.00;101191.50;1039868;28;20303;-79
2023/01/14 00:08:10;;;;;;;10.25;2.10;;;;;;;6.20;100.00;101185.56;1039865;28;20811;-79
2023/01/14 00:08:42;;;;;;;9.68;3.20;;;;;;;6.20;100.00;101188.22;1038353;28;20941;-79
2023/01/14 00:09:14;;;;;;;11.70;2.10;;;;;;;6.23;100.00;101185.22;1039514;28;20303;-79
2023/01/14 00:09:46;;;;;;;9.00;2.70;;;;;;;6.21;100.00;101187.22;1043375;28;20369;-79
2023/01/14 00:10:17;;;;;;;8.68;2.58;;;;;;;6.20;100.00;101182.94;1043750;28;20645;-79
2023/01/14 00:10:49;;;;;;;9.13;1.88;;;;;;;6.16;100.00;101195.69;1045382;28;20297;-79
2023/01/14 00:11:45;;;;;;;6.90;2.10;;;;;;;6.12;100.00;101189.13;1043759;28;20374;-79
2023/01/14 00:12:12;;;;;;;14.75;2.60;;;;;;;6.06;100.00;101187.19;1044638;28;20307;-79
2023/01/14 00:12:44;;;;;;;6.70;2.58;;;;;;;6.07;100.00;101195.94;1039691;28;22021;-79
2023/01/14 00:13:15;;;;;;;11.40;1.63;;;;;;;6.18;100.00;101190.22;1039232;28;20306;-79
2023/01/14 00:13:47;;;;;;;13.52;2.03;;;;;;;6.15;100.00;101190.59;1042548;28;20626;-79
2023/01/14 00:14:24;;;;;;;14.85;2.10;;;;;;;6.14;100.00;101188.94;1041185;28;20646;-79
2023/01/14 00:14:56;;;;;;;12.45;3.15;;;;;;;6.13;100.00;101189.94;1043578;28;20287;-79
2023/01/14 00:15:27;;;;;;;11.93;2.05;;;;;;;6.12;100.00;101190.94;1044596;28;20295;-79
2023/01/14 00:15:59;;;;;;;11.68;2.22;;;;;;;6.08;100.00;101193.13;1043528;28;20307;-79
2023/01/14 00:16:31;;;;;;;7.50;2.28;;;;;;;6.02;100.00;101187.69;1046126;28;20473;-79
2023/01/14 00:17:03;;;;;;;7.65;2.42;;;;;;;6.02;100.00;101187.69;1045570;28;20330;-79
2023/01/14 00:17:34;;;;;;;13.15;2.45;;;;;;;5.99;100.00;101188.88;1039164;28;20796;-79
2023/01/14 00:18:06;;;;;;;8.85;2.00;;;;;;;5.93;100.00;101188.78;1041947;28;20300;-79
2023/01/14 00:18:38;;;;;;;13.27;2.63;;;;;;;5.99;100.00;101193.34;1032240;28;20297;-79
2023/01/14 00:19:10;;;;;;;16.50;3.35;;;;;;;5.99;100.00;101188.06;1035023;28;20304;-79
2023/01/14 00:19:42;;;;;;;11.85;3.67;;;;;;;5.98;100.00;101197.81;1029874;28;20792;-79
2023/01/14 00:20:14;;;;;;;11.80;3.05;;;;;;;6.02;100.00;101188.53;1032226;28;20289;-78
2023/01/14 00:21:06;;;;;;;7.97;2.25;;;;;;;6.04;100.00;101191.84;1036000;28;20821;-80
2023/01/14 00:21:40;;;;;;;8.80;1.55;;;;;;;6.01;100.00;101194.00;1038814;28;20861;-79
2023/01/14 00:22:12;;;;;;;11.27;2.55;;;;;;;5.96;100.00;101191.06;1041132;28;20402;-79
2023/01/14 00:22:43;;;;;;;12.43;3.78;;;;;;;6.03;100.00;101189.38;1043050;28;20310;-79
2023/01/14 00:23:15;;;;;;;8.77;2.97;;;;;;;5.99;100.00;101188.06;1044010;28;20377;-79
2023/01/14 00:23:46;;;;;;;9.27;2.78;;;;;;;5.99;100.00;101193.34;1043900;28;20321;-79
2023/01/14 00:24:19;;;;;;;8.20;2.22;;;;;;;5.95;100.00;101197.34;1044414;28;20460;-79
2023/01/14 00:24:51;;;;;;;7.68;2.58;;;;;;;5.98;100.00;101200.47;1043391;28;20302;-79
2023/01/14 00:25:23;;;;;;;17.42;2.75;;;;;;;6.01;100.00;101196.63;1038325;28;20287;-79
2023/01/14 00:26:05;;;;;;;13.07;2.15;;;;;;;5.97;100.00;101208.56;1039546;28;20296;-79
2023/01/14 00:26:37;;;;;;;8.18;3.00;;;;;;;5.98;100.00;101202.28;1037183;28;20544;-79
2023/01/14 00:27:09;;;;;;;11.07;2.30;;;;;;;5.93;100.00;101213.41;1033337;28;20313;-79
2023/01/14 00:27:41;;;;;;;14.05;3.05;;;;;;;5.89;100.00;101210.28;1035028;28;20296;-78
2023/01/14 00:28:12;;;;;;;8.38;2.17;;;;;;;5.93;100.00;101212.56;1035392;28;20319;-79
2023/01/14 00:28:48;;;;;;;7.10;2.10;;;;;;;5.91;100.00;101211.94;1036154;28;20683;-79
2023/01/14 00:29:27;;;;;;;14.27;3.22;;;;;;;5.88;100.00;101213.91;1032213;28;20312;-79
2023/01/14 00:29:59;;;;;;;10.02;2.15;;;;;;;5.84;100.00;101220.53;1036740;28;20786;-79
2023/01/14 00:30:30;;;;;;;13.68;2.80;;;;;;;5.87;100.00;101222.81;1033070;28;20345;-79
2023/01/14 00:31:08;;;;;;;9.18;2.60;;;;;;;5.87;100.00;101222.81;1035609;28;20312;-79
2023/01/14 00:31:39;;;;;;;14.00;2.03;;;;;;;5.83;100.00;101221.53;1036548;28;20368;-79
2023/01/14 00:32:11;;;;;;;9.27;2.55;;;;;;;5.87;100.00;101225.47;1040793;28;20789;-79
2023/01/14 00:32:43;;;;;;;15.85;3.17;;;;;;;5.92;100.00;101224.16;1037054;28;20798;-79
2023/01/14 00:33:15;;;;;;;8.55;1.88;;;;;;;5.92;100.00;101230.25;1035658;28;20304;-79
2023/01/14 00:33:47;;;;;;;13.05;2.47;;;;;;;5.93;100.00;101220.50;1035222;28;20785;-79
2023/01/14 00:34:19;;;;;;;10.57;2.97;;;;;;;6.05;100.00;101219.94;1032503;28;20356;-79
2023/01/14 00:34:51;;;;;;;15.90;2.30;;;;;;;6.01;100.00;101223.06;1032767;28;20715;-79
2023/01/14 00:35:22;;;;;;;11.00;3.25;;;;;;;6.03;100.00;101227.22;1027703;28;20302;-79
2023/01/14 00:35:57;;;;;;;10.10;2.58;;;;;;;6.08;100.00;101218.75;1030017;28;20306;-79
2023/01/14 00:36:28;;;;;;;11.15;2.28;;;;;;;6.09;100.00;101231.78;1029672;28;20302;-79
2023/01/14 00:37:00;;;;;;;12.20;2.78;;;;;;;6.07;100.00;101232.97;1035460;28;20327;-79
2023/01/14 00:37:34;;;;;;;7.10;1.85;;;;;;;6.05;100.00;101234.97;1033101;28;21157;-78
2023/01/14 00:38:06;;;;;;;11.60;2.35;;;;;;;6.06;100.00;101237.44;1034318;28;20301;-78
2023/01/14 00:38:38;;;;;;;18.33;2.95;;;;;;;6.04;100.00;101235.97;1040250;28;20311;-78
2023/01/14 00:39:11;;;;;;;6.63;2.85;;;;;;;6.12;100.00;101235.91;1030915;28;20335;-78
2023/01/14 00:39:45;;;;;;;10.43;2.67;;;;;;;6.09;100.00;101241.56;1031811;28;20711;-78
2023/01/14 00:40:16;;;;;;;7.65;1.95;;;;;;;6.06;100.00;101231.31;1035528;28;20304;-78
2023/01/14 00:40:48;;;;;;;14.32;2.53;;;;;;;6.07;100.00;101233.78;1031372;28;20297;-78
2023/01/14 00:41:24;;;;;;;11.18;2.33;;;;;;;6.15;100.00;101227.59;1032338;28;20370;-78
2023/01/14 00:41:56;;;;;;;17.50;2.28;;;;;;;6.17;100.00;101229.06;1026803;28;20368;-78
2023/01/14 00:42:28;;;;;;;14.30;2.08;;;;;;;6.15;100.00;101224.97;1024547;28;20297;-78
2023/01/14 00:42:59;;;;;;;14.10;1.83;;;;;;;6.15;100.00;101230.25;1027753;28;20396;-78
2023/01/14 00:43:33;;;;;;;10.05;2.50;;;;;;;6.18;100.00;101229.91;1027385;28;20461;-78
2023/01/14 00:44:08;;;;;;;10.30;2.80;;;;;;;6.18;100.00;101224.59;1036464;28;20301;-79
2023/01/14 00:44:42;;;;;;;11.45;2.35;;;;;;;6.18;100.00;101230.72;1037603;28;20304;-78
2023/01/14 00:45:14;;;;;;;14.43;2.70;;;;;;;6.18;100.00;101230.72;1038007;28;20284;-78
2023/01/14 00:45:46;;;;;;;10.70;2.45;;;;;;;6.22;100.00;101235.66;1043132;28;20311;-78
2023/01/14 00:46:20;;;;;;;12.27;3.13;;;;;;;6.19;100.00;101231.53;1044218;28;20307;-78
2023/01/14 00:46:53;;;;;;;10.90;2.47;;;;;;;6.19;100.00;101234.19;1048483;28;20302;-78
2023/01/14 00:47:27;;;;;;;11.93;2.28;;;;;;;6.23;100.00;101227.53;1039984;28;20852;-78
2023/01/14 00:47:59;;;;;;;12.05;2.97;;;;;;;6.24;100.00;101237.13;1039062;28;20314;-78
2023/01/14 00:48:32;;;;;;;9.95;2.33;;;;;;;6.22;100.00;101239.13;1038857;28;20572;-78
2023/01/14 00:49:05;;;;;;;15.85;2.92;;;;;;;6.24;100.00;101234.47;1039645;28;20805;-78
2023/01/14 00:49:37;;;;;;;12.10;2.40;;;;;;;6.24;100.00;101234.47;1043461;28;20868;-78
2023/01/14 00:50:10;;;;;;;10.70;2.85;;;;;;;6.24;100.00;101233.66;1043167;28;20299;-78
2023/01/14 00:50:42;;;;;;;11.00;2.58;;;;;;;6.24;100.00;101239.75;1039370;28;20461;-79
2023/01/14 00:51:14;;;;;;;10.60;2.70;;;;;;;6.22;100.00;101241.75;1039256;28;20387;-79
2023/01/14 00:51:46;;;;;;;9.35;2.15;;;;;;;6.22;100.00;101241.75;1039200;28;20303;-78
2023/01/14 00:52:18;;;;;;;7.82;2.78;;;;;;;6.27;100.00;101234.09;1034988;28;20676;-78
2023/01/14 00:52:50;;;;;;;12.85;3.15;;;;;;;6.28;100.00;101238.41;1036057;28;20288;-78
2023/01/14 00:53:21;;;;;;;19.33;2.80;;;;;;;6.27;100.00;101239.41;1039181;28;20284;-78
2023/01/14 00:53:53;;;;;;;8.50;2.55;;;;;;;6.29;100.00;101241.88;1039501;28;20382;-78
2023/01/14 00:54:24;;;;;;;9.50;2.67;;;;;;;6.29;100.00;101241.88;1042957;28;20287;-78
2023/01/14 00:54:56;;;;;;;11.55;2.15;;;;;;;6.28;100.00;101248.97;1043901;28;20295;-78
2023/01/14 00:55:28;;;;;;;18.13;3.00;;;;;;;6.30;100.00;101241.72;1043909;28;20300;-78
2023/01/14 00:56:01;;;;;;;17.90;3.72;;;;;;;6.27;100.00;101242.03;1039338;28;20355;-78
2023/01/14 00:56:32;;;;;;;11.90;3.47;;;;;;;6.29;100.00;101241.88;1039323;28;20296;-78
2023/01/14 00:57:04;;;;;;;9.77;2.58;;;;;;;6.29;100.00;101245.34;1035343;28;20304;-78
2023/01/14 00:57:35;;;;;;;6.18;2.45;;;;;;;6.30;100.00;101236.44;1039718;28;20296;-78
2023/01/14 00:58:09;;;;;;;12.82;3.13;;;;;;;6.28;100.00;101235.75;1038927;28;20374;-78
2023/01/14 00:58:41;;;;;;;12.15;3.35;;;;;;;6.31;100.00;101240.72;1040180;28;20801;-78
2023/01/14 00:59:19;;;;;;;14.85;3.83;;;;;;;6.27;100.00;101242.03;1043258;28;20757;-78
2023/01/14 00:59:52;;;;;;;16.70;3.00;;;;;;;6.31;100.00;101248.66;1040774;28;20371;-78
2023/01/14 01:00:24;;;;;;;13.88;2.67;;;;;;;6.31;100.00;101246.00;1042211;28;20299;-78
2023/01/14 01:00:56;;;;;;;11.43;2.65;;;;;;;6.33;100.00;101243.19;1043226;28;20295;-78
2023/01/14 01:01:28;;;;;;;11.65;4.40;;;;;;;6.31;100.00;101251.28;1039684;28;20856;-78
2023/01/14 01:02:01;;;;;;;14.43;2.92;;;;;;;6.34;100.00;101243.00;1043187;28;20386;-78
2023/01/14 01:02:33;;;;;;;8.90;2.58;;;;;;;6.29;100.00;101237.41;1045934;28;20809;-78
2023/01/14 01:03:04;;;;;;;11.90;2.65;;;;;;;6.27;100.00;101242.03;1035997;28;20475;-78
2023/01/14 01:03:41;;;;;;;10.88;2.83;;;;;;;6.31;100.00;101246.00;1034629;28;20829;-78
2023/01/14 01:04:14;;;;;;;9.32;2.70;;;;;;;6.32;100.00;101252.94;1031072;28;20646;-78
2023/01/14 01:04:46;;;;;;;10.75;2.65;;;;;;;6.37;100.00;101247.94;1028145;28;20404;-78
2023/01/14 01:05:17;;;;;;;14.77;2.30;;;;;;;6.32;100.00;101249.47;1028632;28;20298;-79
2023/01/14 01:05:50;;;;;;;13.73;3.72;;;;;;;6.27;100.00;101247.34;1036817;28;20820;-79
2023/01/14 01:06:23;;;;;;;10.13;2.78;;;;;;;6.30;100.00;101243.50;1038067;28;20308;-79
2023/01/14 01:06:55;;;;;;;11.50;2.15;;;;;;;6.31;100.00;101246.00;1036068;28;20297;-79
2023/01/14 01:07:27;;;;;;;11.20;2.08;;;;;;;6.34;100.00;101253.59;1038359;28;20304;-79
2023/01/14 01:07:58;;;;;;;12.95;2.53;;;;;;;6.33;100.00;101254.59;1036726;28;20304;-79
2023/01/14 01:08:30;;;;;;;10.07;2.85;;;;;;;6.33;100.00;101254.59;1039886;28;20304;-79
2023/01/14 01:09:03;;;;;;;13.02;3.00;;;;;;;6.38;100.00;101256.69;1039462;28;20304;-79
2023/01/14 01:09:35;;;;;;;16.40;3.45;;;;;;;6.37;100.00;101255.03;1031107;28;20479;-79
2023/01/14 01:10:09;;;;;;;11.38;2.63;;;;;;;6.32;100.00;101252.94;1032671;28;20712;-79
2023/01/14 01:10:42;;;;;;;9.00;2.50;;;;;;;6.34;100.00;101255.41;1036507;28;20292;-79
2023/01/14 01:11:15;;;;;;;16.30;3.10;;;;;;;6.34;100.00;101258.88;1038401;28;20300;-79
2023/01/14 01:11:47;;;;;;;13.98;2.88;;;;;;;6.32;100.00;101258.22;1037878;28;20304;-79
2023/01/14 01:12:18;;;;;;;10.57;2.42;;;;;;;6.35;100.00;101257.88;1030980;28;20313;-78
2023/01/14 01:12:50;;;;;;;11.40;3.17;;;;;;;6.35;100.00;101260.53;1027602;28;20286;-78
2023/01/14 01:13:23;;;;;;;12.73;3.13;;;;;;;6.32;100.00;101262.69;1027920;28;20297;-78
2023/01/14 01:13:56;;;;;;;14.18;2.80;;;;;;;6.29;100.00;101266.50;1027206;28;20302;-78
2023/01/14 01:14:28;;;;;;;17.73;4.97;;;;;;;6.34;100.00;101253.59;1027366;28;20712;-78
2023/01/14 01:15:00;;;;;;;10.63;2.65;;;;;;;6.29;100.00;101253.28;1032047;28;20302;-78
2023/01/14 01:15:35;;;;;;;10.40;2.80;;;;;;;6.37;100.00;101250.56;1038347;28;20836;-78
2023/01/14 01:16:11;;;;;;;10.98;2.10;;;;;;;6.32;100.00;101255.59;1043313;28;20325;-78
2023/01/14 01:16:43;;;;;;;10.00;2.75;;;;;;;6.28;100.00;101250.81;1038206;28;20307;-78
2023/01/14 01:17:15;;;;;;;4.30;1.98;;;;;;;6.29;100.00;101260.38;1035097;28;20304;-78
2023/01/14 01:17:46;;;;;;;18.40;3.13;;;;;;;6.23;100.00;101256.63;1032438;28;20484;-78
2023/01/14 01:18:19;;;;;;;15.75;2.90;;;;;;;6.27;100.00;101260.56;1032737;28;20304;-79
2023/01/14 01:18:52;;;;;;;9.57;2.22;;;;;;;6.28;100.00;101253.44;1036120;28;20572;-79
2023/01/14 01:19:24;;;;;;;11.50;2.83;;;;;;;6.29;100.00;101263.84;1033381;28;20309;-79
2023/01/14 01:19:55;;;;;;;9.18;1.77;;;;;;;6.24;100.00;101263.56;1033503;28;20308;-78
2023/01/14 01:20:27;;;;;;;11.40;2.85;;;;;;;6.27;100.00;101265.84;1036317;28;20388;-79
2023/01/14 01:21:04;;;;;;;15.50;3.58;;;;;;;6.20;100.00;101264.94;1038825;28;20307;-78
2023/01/14 01:21:36;;;;;;;10.23;2.95;;;;;;;6.19;100.00;101272.03;1038459;28;20315;-79
2023/01/14 01:22:07;;;;;;;17.23;3.17;;;;;;;6.18;100.00;101274.88;1035906;28;20289;-79
2023/01/14 01:22:42;;;;;;;14.15;2.55;;;;;;;6.17;100.00;101270.56;1040443;28;20361;-79
2023/01/14 01:23:14;;;;;;;14.45;2.80;;;;;;;6.18;100.00;101269.56;1033403;28;20301;-79
2023/01/14 01:23:46;;;;;;;14.88;2.70;;;;;;;6.18;100.00;101272.22;1031262;28;20294;-79
2023/01/14 01:24:18;;;;;;;8.52;2.58;;;;;;;6.16;100.00;101268.94;1031095;28;20814;-79
2023/01/14 01:24:53;;;;;;;17.42;4.05;;;;;;;6.17;100.00;101270.56;1031784;28;20322;-79
2023/01/14 01:25:25;;;;;;;12.77;3.50;;;;;;;6.13;100.00;101264.81;1032189;28;20920;-79
2023/01/14 01:26:01;;;;;;;15.82;2.67;;;;;;;6.15;100.00;101267.28;1032136;28;20301;-79
2023/01/14 01:26:32;;;;;;;13.43;3.47;;;;;;;6.17;100.00;101265.28;1034551;28;20305;-79
2023/01/14 01:27:04;;;;;;;13.27;4.63;;;;;;;6.16;100.00;101263.63;1034087;28;20877;-78
2023/01/14 01:27:35;;;;;;;12.95;1.92;;;;;;;6.19;100.00;101274.69;1031685;28;20345;-78
2023/01/14 01:28:07;;;;;;;18.90;3.17;;;;;;;6.18;100.00;101272.22;1029527;28;20286;-78
2023/01/14 01:28:39;;;;;;;11.30;2.90;;;;;;;6.18;100.00;101274.88;1031155;28;20304;-78
2023/01/14 01:29:11;;;;;;;9.45;2.25;;;;;;;6.20;100.00;101267.56;1035013;28;20297;-78
2023/01/14 01:29:42;;;;;;;15.27;4.10;;;;;;;6.19;100.00;101273.84;1031622;28;20298;-78
2023/01/14 01:30:14;;;;;;;11.13;2.78;;;;;;;6.17;100.00;101278.50;1040303;28;20291;-78
2023/01/14 01:30:46;;;;;;;17.83;3.25;;;;;;;6.27;100.00;101276.44;1035959;28;20300;-78
2023/01/14 01:31:21;;;;;;;9.35;2.83;;;;;;;6.22;100.00;101278.78;1039763;28;20304;-78
2023/01/14 01:31:57;;;;;;;12.35;2.70;;;;;;;6.25;100.00;101274.97;1033409;28;20945;-78
2023/01/14 01:32:29;;;;;;;11.82;2.63;;;;;;;6.18;100.00;101280.16;1028716;28;20294;-78
2023/01/14 01:33:01;;;;;;;14.93;3.22;;;;;;;6.11;100.00;101276.56;1032365;28;20396;-78
2023/01/14 01:33:33;;;;;;;19.30;3.85;;;;;;;6.13;100.00;101271.94;1035267;28;20410;-78
2023/01/14 01:34:04;;;;;;;21.23;5.25;;;;;;;6.10;100.00;101275.75;1039255;28;20657;-78
2023/01/14 01:34:36;;;;;;;22.00;3.25;;;;;;;6.05;100.00;101274.63;1039024;28;20292;-78
2023/01/14 01:35:08;;;;;;;13.45;2.95;;;;;;;6.09;100.00;101273.28;1031112;28;20306;-78
2023/01/14 01:35:40;;;;;;;10.43;3.50;;;;;;;6.11;100.00;101272.09;1027872;28;20298;-77
2023/01/14 01:36:14;;;;;;;20.10;3.97;;;;;;;6.12;100.00;101268.47;1026572;28;20449;-78
2023/01/14 01:36:46;;;;;;;14.65;4.30;;;;;;;6.08;100.00;101267.19;1038579;28;20323;-78
2023/01/14 01:37:18;;;;;;;10.32;3.25;;;;;;;6.04;100.00;101268.53;1042087;28;20820;-78
2023/01/14 01:37:51;;;;;;;18.50;3.03;;;;;;;6.01;100.00;101265.38;1044103;28;20295;-77
2023/01/14 01:38:22;;;;;;;10.57;2.63;;;;;;;6.01;100.00;101273.31;1046642;28;20299;-78
2023/01/14 01:38:55;;;;;;;15.80;3.33;;;;;;;5.99;100.00;101267.38;1043042;28;20322;-77
2023/01/14 01:39:26;;;;;;;11.95;3.65;;;;;;;5.99;100.00;101272.66;1034584;28;20344;-78
2023/01/14 01:39:58;;;;;;;13.93;3.38;;;;;;;6.00;100.00;101276.97;1031125;28;20668;-78
2023/01/14 01:40:29;;;;;;;16.77;3.30;;;;;;;5.98;100.00;101268.38;1030834;28;20289;-79
2023/01/14 01:41:01;;;;;;;15.13;3.03;;;;;;;5.93;100.00;101273.38;1029746;28;20309;-79
2023/01/14 01:41:33;;;;;;;14.00;4.78;;;;;;;5.94;100.00;101267.09;1032320;28;20300;-79
2023/01/14 01:42:05;;;;;;;16.73;3.15;;;;;;;5.94;100.00;101264.44;1041056;28;20390;-79
2023/01/14 01:42:54;;;;;;;11.93;3.05;;;;;;;5.88;100.00;101271.22;1035538;28;20308;-79
2023/01/14 01:43:30;;;;;;;13.98;2.70;;;;;;;5.91;100.00;101270.09;1038176;28;20288;-79
2023/01/14 01:44:07;;;;;;;16.73;3.33;;;;;;;5.91;100.00;101270.09;1035196;28;20710;-79
2023/01/14 01:44:39;;;;;;;16.73;3.92;;;;;;;5.89;100.00;101263.16;1038198;28;20292;-79
2023/01/14 01:45:26;;;;;;;10.27;3.08;;;;;;;5.88;100.00;101265.94;1041088;28;20311;-78
2023/01/14 01:45:59;;;;;;;16.85;3.28;;;;;;;5.88;100.00;101261.47;1042377;28;20284;-79
2023/01/14 01:46:31;;;;;;;14.45;3.70;;;;;;;5.98;100.00;101265.75;1042358;28;20802;-78
2023/01/14 01:47:04;;;;;;;13.32;2.38;;;;;;;5.94;100.00;101264.44;1038484;28;20382;-78
2023/01/14 01:47:35;;;;;;;11.10;3.58;;;;;;;5.94;100.00;101264.44;1039033;28;20327;-78
2023/01/14 01:48:27;;;;;;;9.93;3.53;;;;;;;5.95;100.00;101260.81;1035902;28;20304;-78
2023/01/14 01:49:12;;;;;;;14.10;3.38;;;;;;;5.95;100.00;101266.09;1041653;28;20295;-78
2023/01/14 01:49:44;;;;;;;10.50;2.78;;;;;;;5.92;100.00;101267.28;1038185;28;20710;-79
2023/01/14 01:50:16;;;;;;;9.32;2.75;;;;;;;5.92;100.00;101263.81;1043446;28;20398;-78
2023/01/14 01:50:58;;;;;;;17.27;3.80;;;;;;;5.93;100.00;101266.28;1038774;28;20670;-78
2023/01/14 01:51:34;;;;;;;14.15;3.70;;;;;;;5.96;100.00;101273.03;1038268;28;20376;-78
2023/01/14 01:52:16;;;;;;;19.05;3.53;;;;;;;5.89;100.00;101268.44;1037025;28;20667;-79
2023/01/14 01:52:48;;;;;;;12.55;2.95;;;;;;;5.88;100.00;101272.06;1035584;28;20664;-79
2023/01/14 01:53:20;;;;;;;13.25;3.25;;;;;;;5.95;100.00;101268.75;1039389;28;20650;-79
2023/01/14 01:53:53;;;;;;;13.25;2.58;;;;;;;5.94;100.00;101275.03;1040105;28;21012;-80
2023/01/14 01:54:30;;;;;;;13.18;3.35;;;;;;;5.91;100.00;101268.28;1033951;28;20309;-79
2023/01/14 01:55:07;;;;;;;10.52;3.47;;;;;;;5.93;100.00;101273.38;1035836;28;20847;-79
2023/01/14 01:55:41;;;;;;;15.52;2.88;;;;;;;5.95;100.00;101268.75;1037428;28;20880;-79
2023/01/14 01:56:15;;;;;;;12.70;2.83;;;;;;;5.94;100.00;101267.91;1036129;28;20309;-79
2023/01/14 01:56:48;;;;;;;14.40;4.10;;;;;;;5.93;100.00;101274.19;1040940;28;20834;-79
2023/01/14 01:57:20;;;;;;;10.40;2.70;;;;;;;5.92;100.00;101267.28;1042762;28;20373;-79
2023/01/14 01:57:55;;;;;;;10.90;4.05;;;;;;;5.91;100.00;101262.16;1036331;28;20309;-79
2023/01/14 01:58:27;;;;;;;14.63;3.10;;;;;;;5.86;100.00;101260.84;1034125;28;20297;-79
2023/01/14 01:59:01;;;;;;;15.48;5.20;;;;;;;5.84;100.00;101267.31;1032991;28;20744;-79
2023/01/14 01:59:39;;;;;;;15.85;3.58;;;;;;;5.85;100.00;101275.06;1033274;28;20320;-79
2023/01/14 02:00:12;;;;;;;9.88;2.70;;;;;;;5.90;100.00;101263.97;1028625;28;20302;-78
2023/01/14 02:00:48;;;;;;;15.23;4.30;;;;;;;5.83;100.00;101263.84;1031019;28;20372;-79
2023/01/14 02:01:20;;;;;;;18.60;4.60;;;;;;;5.85;100.00;101272.41;1033198;28;20803;-79
2023/01/14 02:01:53;;;;;;;8.73;2.72;;;;;;;5.85;100.00;101267.13;1034141;28;20290;-79
2023/01/14 02:02:25;;;;;;;21.38;3.60;;;;;;;5.80;100.00;101269.47;1037612;28;20303;-79
2023/01/14 02:03:01;;;;;;;6.45;2.65;;;;;;;5.83;100.00;101270.94;1028115;28;20380;-79
2023/01/14 02:03:38;;;;;;;19.15;3.83;;;;;;;5.81;100.00;101265.00;1037285;28;20304;-79
2023/01/14 02:04:11;;;;;;;10.90;2.40;;;;;;;5.77;100.00;101263.72;1037964;28;20371;-79
2023/01/14 02:04:43;;;;;;;13.90;4.20;;;;;;;5.81;100.00;101257.91;1037482;28;20799;-79
2023/01/14 02:05:15;;;;;;;16.13;3.30;;;;;;;5.77;100.00;101259.25;1038407;28;20300;-79
2023/01/14 02:05:48;;;;;;;24.80;4.70;;;;;;;5.79;100.00;101272.28;1036273;28;21033;-81
2023/01/14 02:06:20;;;;;;;8.50;2.47;;;;;;;5.86;100.00;101260.00;1042349;28;20650;-80
2023/01/14 02:06:52;;;;;;;14.63;3.47;;;;;;;5.83;100.00;101263.84;1047110;28;20397;-80
2023/01/14 02:07:25;;;;;;;18.30;4.05;;;;;;;5.81;100.00;101267.66;1036647;28;20300;-80
2023/01/14 02:07:57;;;;;;;15.07;2.72;;;;;;;5.79;100.00;101270.47;1039553;28;20355;-80
2023/01/14 02:08:29;;;;;;;14.95;3.47;;;;;;;5.79;100.00;101273.13;1037617;28;20760;-80
2023/01/14 02:09:02;;;;;;;13.68;2.92;;;;;;;5.77;100.00;101264.53;1032128;28;20309;-80
2023/01/14 02:09:34;;;;;;;13.18;3.58;;;;;;;5.73;100.00;101268.50;1028593;28;20313;-80
2023/01/14 02:10:06;;;;;;;24.85;5.43;;;;;;;5.73;100.00;101273.78;1029532;28;20294;-80
2023/01/14 02:11:07;;;;;;;13.43;2.85;;;;;;;5.74;100.00;101275.44;1029359;28;20310;-80
2023/01/14 02:11:57;;;;;;;18.02;2.92;;;;;;;5.76;100.00;101277.94;1042011;28;20414;-80
2023/01/14 02:12:58;;;;;;;14.13;4.70;;;;;;;5.77;100.00;101283.03;1037959;28;20038;-79
2023/01/14 02:13:42;;;;;;;13.88;3.55;;;;;;;5.78;100.00;101275.94;1039413;28;20552;-80
2023/01/14 02:14:18;;;;;;;13.95;2.67;;;;;;;5.82;100.00;101267.47;1040757;28;20831;-80
2023/01/14 02:15:27;;;;;;;14.52;2.28;;;;;;;5.87;100.00;101275.69;1044458;28;20817;-80
2023/01/14 02:16:20;;;;;;;13.85;3.72;;;;;;;5.85;100.00;101275.06;1043789;28;20283;-80
2023/01/14 02:17:08;;;;;;;18.45;3.42;;;;;;;5.83;100.00;101269.13;1046700;28;20474;-80
2023/01/14 02:17:59;;;;;;;16.85;4.45;;;;;;;5.81;100.00;101271.13;1052326;28;20818;-80
2023/01/14 02:18:49;;;;;;;;;;;;;;;5.83;100.00;101277.06;1042099;28;20418;-80
2023/01/14 02:19:50;;;;;;;17.77;4.63;;;;;;;5.82;100.00;101272.75;1039478;28;20494;-79
2023/01/14 02:20:26;;;;;;;;;;;;;;;5.83;100.00;101269.13;1034333;28;20306;-79
2023/01/14 02:21:20;;;;;;;15.32;3.35;;;;;;;5.82;100.00;101264.84;1028320;28;19922;-79
2023/01/14 02:22:20;;;;;;;13.57;3.92;;;;;;;5.84;100.00;101265.47;1033476;28;20303;-79
2023/01/14 02:23:10;;;;;;;26.10;5.03;;;;;;;5.82;100.00;101267.47;1042664;28;20296;-78
2023/01/14 02:23:51;;;;;;;11.60;2.75;;;;;;;5.81;100.00;101259.72;1036307;28;20505;-78
2023/01/14 02:24:50;;;;;;;25.92;6.07;;;;;;;5.76;100.00;101264.72;1029588;28;20524;-79
2023/01/14 02:26:01;;;;;;;10.20;2.92;;;;;;;5.77;100.00;101255.78;1037183;28;20034;-80
2023/01/14 02:26:40;;;;;;;16.42;2.85;;;;;;;5.75;100.00;101253.31;1035757;28;20308;-79
2023/01/14 02:27:30;;;;;;;14.23;2.95;;;;;;;5.77;100.00;101261.91;1037735;28;20296;-79
2023/01/14 02:28:21;;;;;;;13.23;2.60;;;;;;;5.71;100.00;101259.91;1033940;28;20313;-79
2023/01/14 02:29:30;;;;;;;16.63;3.58;;;;;;;5.72;100.00;101255.47;1037056;28;20533;-79
2023/01/14 02:30:07;;;;;;;14.73;4.15;;;;;;;5.71;100.00;101256.47;1044253;28;20128;-79
2023/01/14 02:30:49;;;;;;;15.57;2.80;;;;;;;5.72;100.00;101245.72;1041566;28;20809;-79
2023/01/14 02:31:34;;;;;;;22.25;3.78;;;;;;;5.73;100.00;101257.94;1039820;28;20311;-79
2023/01/14 02:32:30;;;;;;;12.60;3.67;;;;;;;5.71;100.00;101253.81;1031116;28;20305;-78
2023/01/14 02:33:21;;;;;;;17.67;3.50;;;;;;;5.62;100.00;101245.13;1035247;28;20307;-78
2023/01/14 02:34:04;;;;;;;13.48;3.55;;;;;;;5.65;100.00;101242.13;1034254;28;20514;-78
2023/01/14 02:34:55;;;;;;;12.57;2.58;;;;;;;5.61;100.00;101245.28;1030459;28;20547;-78
2023/01/14 02:35:47;;;;;;;15.52;2.63;;;;;;;5.52;100.00;101249.81;1032766;28;20305;-79
2023/01/14 02:36:37;;;;;;;10.13;2.22;;;;;;;5.57;100.00;101250.09;1033102;28;20807;-78
2023/01/14 02:37:24;;;;;;;11.43;3.00;;;;;;;5.56;100.00;101248.47;1040803;28;20300;-78
2023/01/14 02:38:23;;;;;;;18.65;3.03;;;;;;;5.59;100.00;101242.81;1038959;28;21259;-78
2023/01/14 02:39:15;;;;;;;13.38;3.88;;;;;;;5.63;100.00;101236.19;1042013;28;20673;-78
2023/01/14 02:39:58;;;;;;;11.10;2.22;;;;;;;5.67;100.00;101242.78;1042365;28;20678;-79
2023/01/14 02:40:42;;;;;;;14.95;3.30;;;;;;;5.64;100.00;101237.84;1042965;28;20786;-78
2023/01/14 02:44:07;;;;;;;9.20;2.53;;;;;;;5.69;100.00;101235.50;1041252;28;20304;-78
2023/01/14 02:44:11;;;;;;;13.90;2.72;;;;;;;5.77;100.00;101243.41;1040429;28;20297;-79
2023/01/14 02:45:15;;;;;;;16.67;2.72;;;;;;;5.74;100.00;101238.44;1034319;28;20306;-78
2023/01/14 02:46:09;;;;;;;10.15;2.58;;;;;;;5.74;100.00;101238.44;1037828;28;20103;-79
2023/01/14 02:46:51;;;;;;;15.35;3.72;;;;;;;5.79;100.00;101230.81;1041973;28;20677;-78